createdAt,value
2018-05-09T00:00:49.043Z,8.27
2018-05-09T00:03:16.535Z,20.00
2018-05-09T00:05:44.049Z,4.90
2018-05-09T00:08:11.545Z,4.87
2018-05-09T00:10:39.141Z,7.80
2018-05-09T00:13:06.627Z,4.73
2018-05-09T00:15:34.082Z,7.53
2018-05-09T00:18:01.539Z,6.20
2018-05-09T00:20:29.030Z,4.47
2018-05-09T00:22:56.537Z,9.40
2018-05-09T00:25:24.013Z,3.63
2018-05-09T00:27:51.473Z,21.53
2018-05-09T00:30:18.935Z,5.00
2018-05-09T00:32:46.428Z,9.20
2018-05-09T00:35:13.921Z,5.10
2018-05-09T00:37:41.412Z,5.50
2018-05-09T00:40:08.901Z,5.27
2018-05-09T00:42:36.394Z,4.20
2018-05-09T00:45:03.875Z,4.40
2018-05-09T00:47:31.365Z,4.60
2018-05-09T00:49:58.887Z,6.33
2018-05-09T00:52:26.413Z,5.63
2018-05-09T00:54:53.879Z,5.20
2018-05-09T00:57:21.419Z,8.30
2018-05-09T00:59:48.879Z,5.00
2018-05-09T01:02:16.360Z,5.00
2018-05-09T01:04:43.934Z,5.33
2018-05-09T01:07:11.414Z,5.13
2018-05-09T01:09:38.935Z,4.97
2018-05-09T01:12:06.412Z,7.30
2018-05-09T01:14:33.894Z,5.50
2018-05-09T01:17:01.409Z,6.17
2018-05-09T01:19:28.888Z,5.57
2018-05-09T01:21:56.382Z,5.20
2018-05-09T01:24:23.843Z,6.40
2018-05-09T01:26:51.336Z,5.57
2018-05-09T01:29:18.826Z,6.73
2018-05-09T01:31:46.329Z,6.37
2018-05-09T01:34:13.834Z,5.60
2018-05-09T01:36:41.292Z,6.27
2018-05-09T01:39:08.786Z,6.17
2018-05-09T01:41:36.305Z,6.27
2018-05-09T01:44:03.789Z,6.30
2018-05-09T01:46:31.438Z,6.27
2018-05-09T01:48:58.940Z,6.40
2018-05-09T01:51:26.450Z,5.90
2018-05-09T01:53:54.018Z,6.13
2018-05-09T01:56:21.497Z,5.70
2018-05-09T01:58:49.073Z,6.53
2018-05-09T02:01:16.645Z,6.40
2018-05-09T02:03:44.105Z,5.33
2018-05-09T02:06:11.637Z,4.97
2018-05-09T02:08:39.094Z,5.73
2018-05-09T02:11:06.679Z,6.07
2018-05-09T02:13:34.177Z,6.10
2018-05-09T02:16:01.630Z,5.47
2018-05-09T02:18:29.211Z,5.90
2018-05-09T02:20:56.707Z,6.77
2018-05-09T02:23:24.155Z,5.90
2018-05-09T02:25:51.661Z,6.13
2018-05-09T02:28:19.153Z,6.10
2018-05-09T02:30:46.608Z,6.40
2018-05-09T02:33:14.105Z,5.87
2018-05-09T02:35:41.589Z,5.73
2018-05-09T02:38:09.107Z,5.63
2018-05-09T02:40:36.649Z,5.47
2018-05-09T02:43:04.134Z,6.37
2018-05-09T02:45:31.629Z,6.10
2018-05-09T02:47:59.171Z,6.20
2018-05-09T02:50:26.643Z,5.67
2018-05-09T02:52:54.146Z,5.40
2018-05-09T02:55:21.675Z,6.17
2018-05-09T02:57:49.136Z,5.87
2018-05-09T03:00:16.601Z,6.50
2018-05-09T03:02:44.198Z,5.43
2018-05-09T03:05:11.689Z,5.60
2018-05-09T03:07:39.172Z,5.43
2018-05-09T03:10:06.699Z,7.30
2018-05-09T03:12:34.150Z,5.17
2018-05-09T03:15:01.612Z,5.70
2018-05-09T03:17:29.117Z,6.40
2018-05-09T03:19:56.618Z,5.63
2018-05-09T03:22:24.080Z,5.40
2018-05-09T03:24:51.568Z,5.70
2018-05-09T03:27:19.145Z,6.23
2018-05-09T03:29:46.679Z,7.57
2018-05-09T03:32:14.437Z,5.77
2018-05-09T03:34:41.949Z,5.80
2018-05-09T03:37:09.418Z,8.83
2018-05-09T03:39:36.988Z,6.53
2018-05-09T03:42:04.476Z,7.03
2018-05-09T03:44:31.966Z,5.93
2018-05-09T03:46:59.481Z,6.23
2018-05-09T03:49:27.023Z,6.27
2018-05-09T03:51:54.525Z,7.20
2018-05-09T03:54:22.043Z,6.70
2018-05-09T03:56:49.508Z,6.00
2018-05-09T03:59:17.034Z,5.70
2018-05-09T04:01:56.228Z,7.13
2018-05-09T04:04:35.593Z,7.10
2018-05-09T04:07:15.112Z,6.70
2018-05-09T04:09:55.574Z,7.53
2018-05-09T04:12:23.050Z,6.60
2018-05-09T04:14:50.602Z,6.00
2018-05-09T04:17:18.091Z,6.03
2018-05-09T04:19:45.592Z,7.30
2018-05-09T04:22:13.111Z,6.60
2018-05-09T04:24:40.621Z,6.90
2018-05-09T04:27:08.086Z,6.37
2018-05-09T04:29:35.632Z,6.20
2018-05-09T04:32:03.117Z,6.13
2018-05-09T04:34:30.588Z,7.13
2018-05-09T04:36:58.109Z,6.83
2018-05-09T04:39:25.585Z,6.10
2018-05-09T04:41:53.121Z,6.70
2018-05-09T04:44:20.525Z,6.13
2018-05-09T04:46:47.985Z,6.53
2018-05-09T04:49:15.548Z,5.87
2018-05-09T04:51:43.006Z,10.30
2018-05-09T04:54:10.505Z,6.33
2018-05-09T04:56:38.022Z,5.97
2018-05-09T04:59:05.556Z,5.77
2018-05-09T05:01:33.050Z,6.60
2018-05-09T05:04:00.511Z,7.33
2018-05-09T05:06:28.021Z,6.73
2018-05-09T05:08:55.511Z,6.70
2018-05-09T05:11:23.020Z,6.27
2018-05-09T05:13:50.558Z,6.57
2018-05-09T05:16:18.103Z,6.03
2018-05-09T05:18:45.704Z,6.13
2018-05-09T05:21:13.190Z,6.43
2018-05-09T05:23:40.704Z,7.83
2018-05-09T05:26:08.187Z,5.43
2018-05-09T05:28:35.669Z,7.20
2018-05-09T05:31:03.129Z,6.80
2018-05-09T05:33:30.637Z,6.77
2018-05-09T05:35:58.127Z,7.23
2018-05-09T05:38:25.702Z,10.80
2018-05-09T05:40:53.181Z,7.07
2018-05-09T05:43:20.698Z,6.67
2018-05-09T05:45:48.196Z,8.90
2018-05-09T05:48:15.669Z,6.63
2018-05-09T05:50:43.176Z,7.20
2018-05-09T05:53:10.654Z,6.87
2018-05-09T05:55:38.135Z,7.40
2018-05-09T05:58:05.645Z,6.97
2018-05-09T06:00:33.100Z,6.10
2018-05-09T06:03:00.609Z,5.57
2018-05-09T06:05:28.093Z,6.00
2018-05-09T06:07:55.608Z,5.90
2018-05-09T06:10:23.121Z,7.40
2018-05-09T06:12:50.582Z,7.20
2018-05-09T06:15:18.055Z,6.60
2018-05-09T06:17:45.550Z,6.43
2018-05-09T06:20:13.003Z,6.80
2018-05-09T06:22:40.500Z,6.53
2018-05-09T06:25:07.962Z,6.93
2018-05-09T06:27:35.468Z,8.03
2018-05-09T06:30:02.977Z,7.97
2018-05-09T06:32:30.436Z,11.80
2018-05-09T06:34:57.941Z,6.80
2018-05-09T06:37:25.512Z,6.80
2018-05-09T06:39:52.974Z,5.90
2018-05-09T06:42:20.432Z,6.63
2018-05-09T06:44:47.945Z,6.90
2018-05-09T06:47:15.448Z,6.70
2018-05-09T06:49:42.944Z,6.40
2018-05-09T06:52:10.449Z,6.50
2018-05-09T06:54:37.905Z,6.63
2018-05-09T06:57:05.360Z,6.17
2018-05-09T06:59:32.871Z,6.23
2018-05-09T07:02:00.332Z,6.93
2018-05-09T07:04:27.788Z,6.90
2018-05-09T07:06:55.383Z,6.63
2018-05-09T07:09:22.875Z,7.07
2018-05-09T07:11:50.368Z,6.47
2018-05-09T07:14:17.926Z,5.60
2018-05-09T07:16:45.397Z,6.47
2018-05-09T07:19:12.894Z,6.80
2018-05-09T07:21:40.409Z,7.03
2018-05-09T07:24:07.864Z,6.87
2018-05-09T07:26:35.372Z,6.37
2018-05-09T07:29:02.993Z,6.43
2018-05-09T07:31:30.493Z,6.20
2018-05-09T07:33:57.965Z,6.70
2018-05-09T07:36:25.542Z,7.13
2018-05-09T07:38:53.117Z,6.80
2018-05-09T07:41:20.597Z,5.67
2018-05-09T07:43:48.117Z,6.80
2018-05-09T07:46:15.673Z,5.43
2018-05-09T07:48:43.184Z,8.90
2018-05-09T07:51:10.842Z,6.10
2018-05-09T07:53:38.359Z,9.33
2018-05-09T07:56:05.847Z,8.30
2018-05-09T07:58:33.298Z,6.33
2018-05-09T08:01:00.892Z,6.43
2018-05-09T08:03:28.355Z,6.33
2018-05-09T08:05:56.173Z,7.27
2018-05-09T08:08:23.670Z,6.43
2018-05-09T08:10:51.209Z,6.30
2018-05-09T08:13:18.689Z,6.93
2018-05-09T08:15:46.171Z,6.47
2018-05-09T08:18:13.656Z,7.17
2018-05-09T08:20:41.193Z,6.60
2018-05-09T08:23:08.788Z,7.63
2018-05-09T08:25:36.303Z,5.60
2018-05-09T08:28:03.760Z,6.10
2018-05-09T08:30:31.261Z,7.27
2018-05-09T08:32:58.837Z,6.77
2018-05-09T08:35:26.334Z,6.60
2018-05-09T08:37:53.801Z,6.70
2018-05-09T08:40:21.400Z,6.60
2018-05-09T08:42:48.894Z,6.70
2018-05-09T08:45:16.356Z,5.43
2018-05-09T08:47:43.873Z,5.73
2018-05-09T08:50:11.357Z,6.20
2018-05-09T08:52:38.808Z,5.60
2018-05-09T08:55:06.346Z,5.80
2018-05-09T08:57:33.820Z,8.33
2018-05-09T09:00:01.339Z,5.50
2018-05-09T09:02:28.833Z,5.53
2018-05-09T09:04:56.294Z,5.20
2018-05-09T09:07:23.833Z,4.97
2018-05-09T09:09:51.349Z,4.50
2018-05-09T09:12:19.056Z,4.80
2018-05-09T09:14:46.560Z,5.23
2018-05-09T09:17:14.356Z,5.00
2018-05-09T09:19:42.025Z,5.50
2018-05-09T09:22:09.996Z,6.03
2018-05-09T09:24:37.517Z,4.53
2018-05-09T09:27:04.999Z,4.90
2018-05-09T09:29:32.499Z,3.77
2018-05-09T09:32:00.022Z,5.40
2018-05-09T09:34:27.552Z,5.07
2018-05-09T09:36:55.451Z,4.17
2018-05-09T09:39:22.938Z,4.83
2018-05-09T09:41:50.508Z,3.83
2018-05-09T09:44:17.976Z,3.00
2018-05-09T09:46:45.461Z,3.17
2018-05-09T09:49:12.988Z,3.83
2018-05-09T09:51:40.481Z,4.37
2018-05-09T09:54:07.983Z,4.70
2018-05-09T09:56:35.555Z,4.63
2018-05-09T09:59:03.060Z,3.40
2018-05-09T10:01:30.526Z,3.50
2018-05-09T10:03:58.022Z,3.10
2018-05-09T10:06:25.583Z,3.53
2018-05-09T10:08:53.061Z,3.23
2018-05-09T10:11:20.551Z,3.30
2018-05-09T10:13:48.069Z,3.33
2018-05-09T10:16:15.606Z,4.00
2018-05-09T10:18:43.003Z,3.30
2018-05-09T10:21:10.493Z,3.00
2018-05-09T10:23:37.974Z,3.10
2018-05-09T10:26:05.508Z,3.70
2018-05-09T10:28:33.117Z,3.20
2018-05-09T10:31:00.585Z,4.90
2018-05-09T10:33:28.060Z,3.73
2018-05-09T10:35:55.634Z,2.93
2018-05-09T10:38:23.051Z,5.80
2018-05-09T10:40:50.544Z,4.07
2018-05-09T10:43:18.054Z,4.60
2018-05-09T10:45:45.560Z,3.80
2018-05-09T10:48:13.048Z,4.47
2018-05-09T10:50:40.530Z,3.83
2018-05-09T10:53:08.024Z,2.90
2018-05-09T10:55:35.508Z,3.13
2018-05-09T10:58:03.086Z,4.33
2018-05-09T11:00:30.580Z,3.43
2018-05-09T11:02:58.084Z,5.03
2018-05-09T11:05:25.578Z,4.10
2018-05-09T11:07:53.045Z,3.53
2018-05-09T11:10:20.524Z,3.30
2018-05-09T11:12:48.004Z,3.77
2018-05-09T11:15:15.501Z,3.30
2018-05-09T11:17:42.991Z,4.73
2018-05-09T11:20:10.503Z,4.50
2018-05-09T11:22:38.003Z,2.70
2018-05-09T11:25:05.503Z,3.60
2018-05-09T11:27:32.998Z,3.50
2018-05-09T11:30:00.485Z,4.17
2018-05-09T11:32:28.018Z,4.00
2018-05-09T11:34:55.520Z,4.30
2018-05-09T11:37:23.084Z,4.60
2018-05-09T11:39:50.536Z,3.50
2018-05-09T11:42:18.086Z,3.80
2018-05-09T11:44:45.593Z,4.20
2018-05-09T11:47:13.129Z,4.50
2018-05-09T11:49:40.676Z,4.77
2018-05-09T11:52:08.146Z,5.13
2018-05-09T11:54:35.598Z,4.83
2018-05-09T11:57:03.107Z,4.07
2018-05-09T11:59:30.696Z,4.67
2018-05-09T12:01:58.193Z,4.50
2018-05-09T12:04:25.712Z,4.37
2018-05-09T12:06:53.193Z,4.30
2018-05-09T12:09:20.659Z,4.07
2018-05-09T12:11:48.165Z,5.30
2018-05-09T12:14:15.749Z,4.73
2018-05-09T12:16:43.210Z,5.17
2018-05-09T12:19:10.807Z,4.67
2018-05-09T12:21:38.357Z,4.50
2018-05-09T12:24:05.810Z,4.27
2018-05-09T12:26:35.514Z,4.13
2018-05-09T12:29:03.034Z,4.37
2018-05-09T12:31:30.551Z,4.50
2018-05-09T12:33:58.042Z,4.40
2018-05-09T12:36:25.520Z,5.23
2018-05-09T12:38:52.975Z,4.70
2018-05-09T12:41:20.492Z,4.20
2018-05-09T12:43:47.970Z,4.67
2018-05-09T12:46:15.452Z,5.23
2018-05-09T12:48:42.999Z,4.13
2018-05-09T12:51:10.433Z,4.90
2018-05-09T12:53:37.925Z,4.40
2018-05-09T12:56:05.435Z,4.60
2018-05-09T12:58:32.955Z,5.33
2018-05-09T13:01:00.494Z,4.60
2018-05-09T13:03:27.986Z,4.13
2018-05-09T13:05:55.478Z,3.70
2018-05-09T13:08:22.960Z,3.40
2018-05-09T13:10:50.418Z,3.40
2018-05-09T13:13:18.101Z,3.40
2018-05-09T13:15:45.534Z,3.97
2018-05-09T13:18:13.013Z,3.07
2018-05-09T13:20:40.497Z,4.33
2018-05-09T13:23:07.953Z,3.83
2018-05-09T13:25:35.408Z,3.63
2018-05-09T13:28:02.876Z,3.80
2018-05-09T13:30:30.392Z,3.67
2018-05-09T13:32:57.873Z,3.90
2018-05-09T13:35:25.432Z,4.00
2018-05-09T13:37:52.888Z,3.30
2018-05-09T13:40:20.578Z,6.50
2018-05-09T13:42:48.040Z,4.80
2018-05-09T13:45:15.510Z,3.70
2018-05-09T13:47:43.021Z,3.87
2018-05-09T13:50:10.614Z,4.07
2018-05-09T13:52:38.249Z,3.17
2018-05-09T13:55:05.736Z,3.60
2018-05-09T13:57:33.229Z,5.00
2018-05-09T14:00:00.732Z,3.33
2018-05-09T14:02:28.236Z,3.60
2018-05-09T14:04:55.864Z,4.03
2018-05-09T14:07:23.325Z,3.57
2018-05-09T14:09:50.814Z,3.00
2018-05-09T14:12:18.333Z,3.63
2018-05-09T14:14:45.787Z,3.23
2018-05-09T14:17:13.280Z,3.80
2018-05-09T14:19:40.818Z,5.00
2018-05-09T14:22:08.354Z,3.57
2018-05-09T14:24:35.863Z,6.23
2018-05-09T14:27:03.370Z,4.03
2018-05-09T14:29:30.871Z,4.17
2018-05-09T14:31:58.396Z,4.50
2018-05-09T14:34:25.917Z,4.30
2018-05-09T14:36:53.383Z,4.50
2018-05-09T14:39:20.956Z,4.87
2018-05-09T14:41:48.427Z,3.37
2018-05-09T14:44:15.922Z,4.37
2018-05-09T14:46:43.491Z,4.10
2018-05-09T14:49:10.929Z,4.13
2018-05-09T14:51:38.431Z,4.40
2018-05-09T14:54:06.013Z,4.20
2018-05-09T14:56:34.472Z,3.40
2018-05-09T14:59:01.932Z,4.20
2018-05-09T15:01:29.445Z,3.97
2018-05-09T15:03:56.936Z,3.20
2018-05-09T15:06:24.564Z,3.37
2018-05-09T15:08:52.021Z,3.47
2018-05-09T15:11:19.616Z,4.03
2018-05-09T15:13:47.206Z,4.27
2018-05-09T15:16:14.660Z,3.90
2018-05-09T15:18:42.255Z,3.60
2018-05-09T15:21:09.799Z,3.10
2018-05-09T15:23:37.245Z,3.87
2018-05-09T15:26:04.706Z,3.57
2018-05-09T15:28:32.223Z,4.10
2018-05-09T15:30:59.709Z,4.03
2018-05-09T15:33:27.208Z,4.30
2018-05-09T15:35:54.695Z,4.73
2018-05-09T15:38:22.192Z,4.00
2018-05-09T15:40:49.710Z,4.00
2018-05-09T15:43:17.170Z,4.00
2018-05-09T15:45:44.757Z,4.30
2018-05-09T15:48:12.234Z,4.30
2018-05-09T15:50:39.775Z,5.10
2018-05-09T15:53:07.264Z,3.60
2018-05-09T15:55:34.797Z,5.50
2018-05-09T15:58:02.251Z,5.83
2018-05-09T16:00:29.754Z,4.30
2018-05-09T16:02:57.237Z,6.90
2018-05-09T16:05:24.683Z,4.30
2018-05-09T16:07:52.146Z,4.57
2018-05-09T16:10:19.679Z,4.60
2018-05-09T16:12:47.158Z,4.70
2018-05-09T16:15:14.650Z,5.07
2018-05-09T16:17:42.136Z,4.60
2018-05-09T16:20:09.776Z,5.20
2018-05-09T16:22:37.213Z,5.03
2018-05-09T16:25:04.755Z,5.07
2018-05-09T16:27:32.355Z,4.80
2018-05-09T16:29:59.878Z,4.40
2018-05-09T16:32:27.763Z,6.23
2018-05-09T16:34:55.241Z,7.37
2018-05-09T16:37:22.850Z,5.80
2018-05-09T16:39:50.342Z,5.10
2018-05-09T16:42:17.799Z,8.10
2018-05-09T16:44:45.265Z,4.93
2018-05-09T16:47:12.724Z,6.30
2018-05-09T16:49:40.221Z,4.90
2018-05-09T16:52:07.764Z,6.00
2018-05-09T16:54:35.294Z,5.63
2018-05-09T16:57:02.785Z,4.43
2018-05-09T16:59:30.281Z,5.07
2018-05-09T17:01:57.786Z,4.70
2018-05-09T17:04:25.270Z,4.87
2018-05-09T17:06:52.728Z,5.37
2018-05-09T17:09:20.238Z,5.53
2018-05-09T17:11:47.721Z,5.47
2018-05-09T17:14:15.296Z,5.93
2018-05-09T17:16:42.805Z,6.07
2018-05-09T17:19:10.286Z,5.20
2018-05-09T17:21:46.513Z,5.40
2018-05-09T17:24:14.001Z,5.07
2018-05-09T17:26:41.550Z,6.37
2018-05-09T17:29:09.009Z,6.80
2018-05-09T17:31:36.463Z,5.60
2018-05-09T17:34:03.977Z,4.80
2018-05-09T17:36:31.439Z,5.40
2018-05-09T17:38:58.916Z,6.33
2018-05-09T17:41:26.477Z,9.13
2018-05-09T17:43:53.985Z,5.60
2018-05-09T17:46:21.444Z,4.33
2018-05-09T17:48:48.952Z,5.40
2018-05-09T17:51:16.432Z,4.97
2018-05-09T17:53:43.899Z,5.70
2018-05-09T17:56:11.575Z,5.40
2018-05-09T17:58:39.105Z,3.47
2018-05-09T18:01:06.617Z,3.70
2018-05-09T18:06:08.126Z,4.93
2018-05-09T18:08:35.674Z,5.43
2018-05-09T18:11:03.227Z,5.90
2018-05-09T18:13:30.744Z,8.97
2018-05-09T18:15:58.450Z,5.93
2018-05-09T18:18:25.937Z,6.97
2018-05-09T18:20:53.496Z,6.43
2018-05-09T18:23:20.950Z,7.17
2018-05-09T18:25:48.542Z,6.17
2018-05-09T18:28:15.984Z,4.40
2018-05-09T18:30:43.482Z,5.83
2018-05-09T18:33:10.970Z,8.10
2018-05-09T18:35:38.581Z,6.53
2018-05-09T18:38:06.039Z,9.03
2018-05-09T18:40:33.765Z,7.80
2018-05-09T18:43:01.364Z,7.17
2018-05-09T18:45:28.872Z,10.73
2018-05-09T18:47:56.414Z,15.90
2018-05-09T18:50:23.873Z,24.77
2018-05-09T18:52:51.464Z,30.73
2018-05-09T18:55:19.049Z,14.60
2018-05-09T18:57:46.539Z,11.60
2018-05-09T19:00:14.062Z,13.00
2018-05-09T19:02:41.564Z,17.23
2018-05-09T19:05:09.077Z,12.27
2018-05-09T19:07:36.608Z,11.97
2018-05-09T19:10:04.076Z,11.97
2018-05-09T19:12:31.570Z,14.43
2018-05-09T19:14:59.065Z,12.87
2018-05-09T19:17:26.535Z,14.80
2018-05-09T19:19:54.013Z,14.30
2018-05-09T19:22:21.480Z,14.93
2018-05-09T19:24:48.968Z,15.97
2018-05-09T19:27:16.452Z,15.50
2018-05-09T19:29:43.985Z,18.00
2018-05-09T19:32:11.575Z,17.67
2018-05-09T19:34:39.032Z,15.00
2018-05-09T19:37:06.545Z,15.27
2018-05-09T19:39:34.023Z,13.23
2018-05-09T19:42:01.492Z,16.60
2018-05-09T19:44:28.993Z,17.57
2018-05-09T19:46:56.456Z,9.70
2018-05-09T19:49:23.972Z,17.67
2018-05-09T19:51:51.432Z,11.50
2018-05-09T19:54:18.943Z,11.50
2018-05-09T19:56:46.482Z,10.13
2018-05-09T19:59:13.956Z,12.67
2018-05-09T20:01:41.458Z,10.57
2018-05-09T20:04:08.981Z,9.07
2018-05-09T20:06:36.487Z,10.97
2018-05-09T20:09:03.987Z,18.20
2018-05-09T20:11:31.477Z,9.80
2018-05-09T20:13:59.039Z,7.37
2018-05-09T20:16:26.441Z,9.80
2018-05-09T20:18:53.999Z,9.87
2018-05-09T20:21:21.502Z,10.20
2018-05-09T20:23:48.994Z,9.80
2018-05-09T20:26:16.508Z,8.93
2018-05-09T20:28:49.983Z,10.40
2018-05-09T20:31:35.240Z,10.10
2018-05-09T20:34:02.747Z,44.90
2018-05-09T20:36:30.214Z,18.87
2018-05-09T20:38:57.698Z,33.03
2018-05-09T20:41:25.286Z,10.77
2018-05-09T20:43:52.677Z,12.87
2018-05-09T20:46:20.228Z,12.53
2018-05-09T20:48:47.700Z,17.27
2018-05-09T20:51:15.201Z,13.67
2018-05-09T20:53:42.679Z,11.50
2018-05-09T20:56:10.252Z,10.80
2018-05-09T20:58:37.758Z,44.90
2018-05-09T21:04:11.329Z,27.37
2018-05-09T21:06:38.852Z,45.30
2018-05-09T21:09:06.365Z,11.93
2018-05-09T21:11:33.893Z,25.23
2018-05-09T21:14:01.363Z,10.60
2018-05-09T21:16:28.833Z,8.43
2018-05-09T21:18:56.409Z,9.47
2018-05-09T21:21:23.892Z,11.03
2018-05-09T21:23:51.411Z,11.47
2018-05-09T21:26:18.884Z,10.60
2018-05-09T21:28:46.366Z,7.80
2018-05-09T21:31:13.925Z,8.27
2018-05-09T21:33:41.480Z,10.63
2018-05-09T21:36:08.975Z,8.70
2018-05-09T21:38:36.461Z,8.67
2018-05-09T21:41:03.997Z,7.90
2018-05-09T21:43:31.480Z,9.20
2018-05-09T21:45:58.992Z,11.63
2018-05-09T21:48:26.480Z,18.27
2018-05-09T21:50:54.021Z,11.43
2018-05-09T21:53:21.550Z,24.00
2018-05-09T21:55:49.142Z,18.83
2018-05-09T21:58:16.597Z,9.20
2018-05-09T22:00:44.126Z,8.80
2018-05-09T22:03:11.628Z,8.17
2018-05-09T22:05:39.120Z,8.40
2018-05-09T22:08:06.638Z,8.60
2018-05-09T22:10:34.203Z,15.73
2018-05-09T22:13:01.698Z,9.50
2018-05-09T22:15:29.204Z,8.70
2018-05-09T22:17:56.682Z,8.50
2018-05-09T22:20:24.165Z,9.50
2018-05-09T22:22:51.679Z,10.30
2018-05-09T22:25:19.213Z,8.93
2018-05-09T22:27:46.782Z,9.73
2018-05-09T22:30:14.235Z,8.73
2018-05-09T22:32:41.732Z,9.20
2018-05-09T22:35:09.208Z,9.03
2018-05-09T22:37:36.726Z,9.20
2018-05-09T22:40:04.233Z,20.23
2018-05-09T22:42:31.720Z,15.07
2018-05-09T22:44:59.268Z,9.97
2018-05-09T22:47:26.877Z,9.43
2018-05-09T22:49:54.381Z,8.60
2018-05-09T22:52:21.881Z,8.43
2018-05-09T22:54:49.527Z,10.30
2018-05-09T22:57:16.950Z,10.23
2018-05-09T22:59:44.403Z,11.20
2018-05-09T23:02:11.906Z,8.50
2018-05-09T23:04:39.556Z,10.73
2018-05-09T23:07:07.174Z,10.17
2018-05-09T23:09:34.796Z,11.70
2018-05-09T23:12:02.358Z,10.97
2018-05-09T23:14:29.870Z,22.93
2018-05-09T23:16:57.388Z,19.10
2018-05-09T23:19:24.945Z,17.97
2018-05-09T23:21:52.484Z,10.70
2018-05-09T23:24:19.972Z,12.43
2018-05-09T23:26:47.461Z,11.13
2018-05-09T23:29:14.981Z,17.50
2018-05-09T23:31:42.447Z,17.03
2018-05-09T23:34:09.930Z,16.93
2018-05-09T23:36:37.661Z,20.67
2018-05-09T23:39:05.123Z,10.33
2018-05-09T23:41:32.652Z,10.70
2018-05-09T23:44:00.125Z,26.97
2018-05-09T23:46:27.613Z,20.13
2018-05-09T23:48:55.248Z,28.73
2018-05-09T23:51:22.719Z,19.37
2018-05-09T23:53:50.217Z,23.13
2018-05-09T23:56:17.730Z,11.07
2018-05-09T23:58:45.256Z,17.50
